Terminal Aerodrome Forecast
Issued by NWS

Home | Current Version | Previous Version | Text Only | Print | Product List | Glossary On
Versions: 1 2 3 4 5 6 7 8 9 10 11 12 13
000
FTUS46 KSGX 251700
TAFCRQ
TAF
KCRQ 251734Z 2518/2618 VRB03KT P6SM SCT150
     FM252000 25008KT P6SM FEW200
     FM260100 VRB03KT P6SM BKN200
     FM261600 12006KT P6SM VCSH SCT050 OVC100=

USA.gov is the U.S. government's official web portal to all federal, state and local government web resources and services.